createdAt,value
2022-09-20T00:00:42.981Z,7.78
2022-09-20T00:03:30.556Z,7.96
2022-09-20T00:06:18.115Z,7.80
2022-09-20T00:09:05.666Z,7.78
2022-09-20T00:11:53.243Z,7.90
2022-09-20T00:14:40.775Z,7.89
2022-09-20T00:17:28.336Z,7.97
2022-09-20T00:20:15.883Z,8.19
2022-09-20T00:23:03.458Z,8.22
2022-09-20T00:25:50.996Z,7.80
2022-09-20T00:28:38.561Z,7.79
2022-09-20T00:31:26.161Z,7.56
2022-09-20T00:34:13.738Z,7.83
2022-09-20T00:37:01.268Z,7.68
2022-09-20T00:39:48.823Z,7.89
2022-09-20T00:42:36.365Z,7.34
2022-09-20T00:45:23.923Z,7.62
2022-09-20T00:48:11.479Z,7.85
2022-09-20T00:50:59.084Z,7.77
2022-09-20T00:53:46.651Z,7.85
2022-09-20T00:56:34.239Z,7.71
2022-09-20T00:59:21.819Z,7.96
2022-09-20T01:02:09.445Z,7.90
2022-09-20T01:04:57.028Z,7.78
2022-09-20T01:07:44.584Z,7.86
2022-09-20T01:10:32.127Z,7.99
2022-09-20T01:13:19.718Z,7.75
2022-09-20T01:16:07.301Z,7.77
2022-09-20T01:18:54.879Z,7.74
2022-09-20T01:21:42.445Z,7.53
2022-09-20T01:24:30.021Z,7.58
2022-09-20T01:27:17.589Z,7.86
2022-09-20T01:30:05.150Z,7.74
2022-09-20T01:32:52.809Z,7.71
2022-09-20T01:35:40.355Z,7.67
2022-09-20T01:38:27.917Z,7.81
2022-09-20T01:41:15.451Z,7.55
2022-09-20T01:44:03.057Z,7.69
2022-09-20T01:46:50.604Z,7.73
2022-09-20T01:49:38.185Z,7.60
2022-09-20T01:52:25.728Z,7.54
2022-09-20T01:55:13.278Z,7.61
2022-09-20T01:58:00.844Z,7.53
2022-09-20T02:00:48.460Z,7.61
2022-09-20T02:03:36.134Z,7.56
2022-09-20T02:06:25.671Z,7.42
2022-09-20T02:09:13.228Z,7.23
2022-09-20T02:12:00.768Z,7.52
2022-09-20T02:14:48.430Z,7.49
2022-09-20T02:17:35.982Z,7.13
2022-09-20T02:20:23.539Z,7.00
2022-09-20T02:23:11.155Z,7.07
2022-09-20T02:25:58.780Z,6.91
2022-09-20T02:28:46.332Z,6.64
2022-09-20T02:31:33.952Z,6.50
2022-09-20T02:34:21.561Z,6.55
2022-09-20T02:37:09.245Z,6.50
2022-09-20T02:39:56.843Z,6.28
2022-09-20T02:42:44.468Z,6.40
2022-09-20T02:45:32.066Z,6.50
2022-09-20T02:48:19.797Z,6.47
2022-09-20T02:51:07.364Z,6.47
2022-09-20T02:53:56.946Z,6.67
2022-09-20T02:56:44.485Z,6.72
2022-09-20T02:59:32.069Z,6.60
2022-09-20T03:02:19.661Z,6.69
2022-09-20T03:05:07.269Z,6.73
2022-09-20T03:07:54.821Z,6.91
2022-09-20T03:10:42.385Z,6.78
2022-09-20T03:13:29.919Z,6.85
2022-09-20T03:16:17.545Z,6.93
2022-09-20T03:19:05.137Z,6.68
2022-09-20T03:21:52.684Z,6.66
2022-09-20T03:24:40.249Z,6.52
2022-09-20T03:27:27.811Z,6.67
2022-09-20T03:30:15.372Z,6.82
2022-09-20T03:33:02.905Z,6.68
2022-09-20T03:35:50.484Z,6.76
2022-09-20T03:38:38.063Z,6.74
2022-09-20T03:41:25.629Z,6.72
2022-09-20T03:44:13.188Z,6.65
2022-09-20T03:47:00.739Z,6.68
2022-09-20T03:49:48.315Z,6.72
2022-09-20T03:52:35.851Z,6.74
2022-09-20T03:55:23.517Z,7.03
2022-09-20T03:58:11.102Z,6.95
2022-09-20T04:00:58.699Z,7.10
2022-09-20T04:03:46.272Z,7.10
2022-09-20T04:06:33.842Z,6.91
2022-09-20T04:09:21.376Z,6.96
2022-09-20T04:12:08.934Z,6.69
2022-09-20T04:14:56.490Z,6.43
2022-09-20T04:17:44.052Z,6.17
2022-09-20T04:20:31.626Z,6.08
2022-09-20T04:23:19.203Z,6.18
2022-09-20T04:26:06.761Z,6.13
2022-09-20T04:28:54.328Z,6.14
2022-09-20T04:31:41.924Z,6.22
2022-09-20T04:34:29.499Z,6.36
2022-09-20T04:37:19.057Z,6.40
2022-09-20T04:40:06.640Z,6.43
2022-09-20T04:42:54.221Z,6.41
2022-09-20T04:45:41.825Z,6.44
2022-09-20T04:48:29.407Z,6.56
2022-09-20T04:51:16.966Z,6.54
2022-09-20T04:54:04.542Z,6.80
2022-09-20T04:56:52.069Z,6.57
2022-09-20T04:59:39.638Z,6.45
2022-09-20T05:02:27.226Z,6.49
2022-09-20T05:05:14.805Z,6.32
2022-09-20T05:08:02.363Z,6.25
2022-09-20T05:10:50.529Z,6.20
2022-09-20T05:13:38.099Z,6.28
2022-09-20T05:16:25.705Z,6.19
2022-09-20T05:19:13.344Z,6.36
2022-09-20T05:22:00.886Z,6.31
2022-09-20T05:24:48.465Z,6.20
2022-09-20T05:27:36.029Z,6.11
2022-09-20T05:30:23.693Z,6.19
2022-09-20T05:33:11.227Z,6.06
2022-09-20T05:35:58.790Z,5.94
2022-09-20T05:38:46.331Z,5.78
2022-09-20T05:41:34.009Z,5.89
2022-09-20T05:44:21.547Z,6.08
2022-09-20T05:47:09.117Z,6.27
2022-09-20T05:49:56.665Z,6.47
2022-09-20T05:52:44.219Z,6.59
2022-09-20T05:55:31.773Z,6.47
2022-09-20T05:58:19.340Z,6.66
2022-09-20T06:01:06.967Z,6.80
2022-09-20T06:03:54.602Z,7.02
2022-09-20T06:06:42.160Z,7.09
2022-09-20T06:09:29.756Z,7.26
2022-09-20T06:12:17.350Z,7.39
2022-09-20T06:15:04.926Z,7.36
2022-09-20T06:17:52.503Z,7.48
2022-09-20T06:20:40.095Z,7.74
2022-09-20T06:23:27.647Z,7.84
2022-09-20T06:26:15.223Z,7.88
2022-09-20T06:29:02.789Z,7.93
2022-09-20T06:31:50.359Z,7.94
2022-09-20T06:34:37.915Z,8.15
2022-09-20T06:37:25.493Z,8.21
2022-09-20T06:40:13.127Z,8.46
2022-09-20T06:43:00.828Z,8.12
2022-09-20T06:45:48.486Z,8.02
2022-09-20T06:48:36.106Z,7.96
2022-09-20T06:51:23.637Z,8.18
2022-09-20T06:54:11.297Z,7.91
2022-09-20T06:56:58.856Z,8.11
2022-09-20T06:59:46.459Z,8.06
2022-09-20T07:02:34.113Z,8.29
2022-09-20T07:05:21.716Z,8.20
2022-09-20T07:08:09.274Z,8.11
2022-09-20T07:10:56.836Z,8.12
2022-09-20T07:13:44.403Z,8.08
2022-09-20T07:16:31.981Z,7.99
2022-09-20T07:19:19.603Z,7.99
2022-09-20T07:22:07.193Z,7.96
2022-09-20T07:24:54.751Z,8.11
2022-09-20T07:27:42.317Z,8.27
2022-09-20T07:30:29.881Z,8.39
2022-09-20T07:33:19.553Z,8.48
2022-09-20T07:36:07.097Z,8.23
2022-09-20T07:38:56.669Z,8.33
2022-09-20T07:41:44.259Z,8.29
2022-09-20T07:44:31.933Z,8.28
2022-09-20T07:47:19.477Z,8.22
2022-09-20T07:50:07.045Z,8.34
2022-09-20T07:52:54.607Z,8.41
2022-09-20T07:55:42.171Z,8.76
2022-09-20T07:58:29.741Z,8.64
2022-09-20T08:01:17.350Z,8.89
2022-09-20T08:04:04.897Z,8.67
2022-09-20T08:06:52.477Z,9.09
2022-09-20T08:09:40.050Z,8.71
2022-09-20T08:15:35.115Z,9.24
2022-09-20T08:18:22.689Z,9.12
2022-09-20T08:21:10.244Z,9.37
2022-09-20T08:23:57.815Z,9.47
2022-09-20T08:26:45.405Z,9.68
2022-09-20T08:29:32.981Z,9.23
2022-09-20T08:32:20.503Z,9.64
2022-09-20T08:35:08.143Z,9.11
2022-09-20T08:37:55.901Z,9.05
2022-09-20T08:40:43.635Z,9.19
2022-09-20T08:43:31.260Z,9.72
2022-09-20T08:46:23.399Z,9.43
2022-09-20T08:49:11.299Z,9.69
2022-09-20T08:51:58.854Z,10.02
2022-09-20T08:54:48.421Z,10.25
2022-09-20T08:57:36.009Z,10.29
2022-09-20T09:00:23.565Z,10.34
2022-09-20T09:03:11.132Z,10.39
2022-09-20T09:05:58.687Z,10.05
2022-09-20T09:08:46.243Z,10.04
2022-09-20T09:11:33.809Z,10.22
2022-09-20T09:14:21.533Z,10.27
2022-09-20T09:17:09.207Z,10.21
2022-09-20T09:19:56.896Z,10.37
2022-09-20T09:22:44.471Z,10.45
2022-09-20T09:25:32.045Z,10.75
2022-09-20T09:28:19.602Z,10.94
2022-09-20T09:31:07.175Z,10.69
2022-09-20T09:33:54.742Z,10.77
2022-09-20T09:36:42.410Z,11.24
2022-09-20T09:39:29.955Z,11.29
2022-09-20T09:42:17.613Z,11.65
2022-09-20T09:45:07.160Z,11.87
2022-09-20T09:47:54.732Z,11.52
2022-09-20T09:50:42.294Z,11.25
2022-09-20T09:53:29.864Z,10.89
2022-09-20T09:56:19.440Z,11.08
2022-09-20T09:59:06.976Z,11.90
2022-09-20T10:01:56.746Z,12.17
2022-09-20T10:04:44.325Z,12.38
2022-09-20T10:07:31.901Z,12.26
2022-09-20T10:10:19.501Z,11.71
2022-09-20T10:13:09.034Z,12.11
2022-09-20T10:15:56.601Z,12.14
2022-09-20T10:18:44.168Z,12.63
2022-09-20T10:21:31.739Z,12.64
2022-09-20T10:24:19.293Z,12.75
2022-09-20T10:27:06.872Z,12.46
2022-09-20T10:29:54.478Z,12.16
2022-09-20T10:32:42.061Z,12.15
2022-09-20T10:35:29.614Z,12.23
2022-09-20T10:38:17.168Z,11.94
2022-09-20T10:41:04.709Z,12.08
2022-09-20T10:43:52.268Z,12.52
2022-09-20T10:46:39.921Z,12.56
2022-09-20T10:49:27.626Z,12.44
2022-09-20T10:52:15.163Z,12.27
2022-09-20T10:55:02.739Z,12.67
2022-09-20T10:57:50.406Z,12.54
2022-09-20T11:00:37.973Z,12.46
2022-09-20T11:03:25.535Z,12.15
2022-09-20T11:06:13.072Z,12.69
2022-09-20T11:09:00.661Z,12.34
2022-09-20T11:11:48.240Z,12.72
2022-09-20T11:14:35.922Z,12.80
2022-09-20T11:17:23.514Z,13.11
2022-09-20T11:20:11.174Z,13.33
2022-09-20T11:22:58.842Z,12.65
2022-09-20T11:25:46.412Z,12.35
2022-09-20T11:28:33.994Z,12.40
2022-09-20T11:31:21.622Z,12.68
2022-09-20T11:34:09.237Z,12.59
2022-09-20T11:36:56.835Z,12.30
2022-09-20T11:39:44.377Z,12.85
2022-09-20T11:42:31.960Z,12.52
2022-09-20T11:45:19.523Z,12.90
2022-09-20T11:48:09.080Z,13.09
2022-09-20T11:50:56.630Z,13.27
2022-09-20T11:53:44.274Z,13.00
2022-09-20T11:56:31.835Z,13.17
2022-09-20T11:59:19.409Z,13.05
2022-09-20T12:02:07.072Z,13.11
2022-09-20T12:04:54.719Z,13.33
2022-09-20T12:07:42.273Z,12.49
2022-09-20T12:10:29.973Z,13.08
2022-09-20T12:13:17.535Z,12.93
2022-09-20T12:16:05.273Z,12.55
2022-09-20T12:18:52.869Z,12.97
2022-09-20T12:21:40.561Z,13.36
2022-09-20T12:24:28.109Z,12.90
2022-09-20T12:27:15.673Z,13.34
2022-09-20T12:30:03.226Z,13.54
2022-09-20T12:32:50.824Z,13.33
2022-09-20T12:35:38.368Z,13.44
2022-09-20T12:38:26.189Z,13.55
2022-09-20T12:41:13.789Z,13.28
2022-09-20T12:44:01.367Z,13.47
2022-09-20T12:46:48.903Z,14.00
2022-09-20T12:49:36.469Z,13.72
2022-09-20T12:52:23.996Z,13.72
2022-09-20T12:55:11.576Z,13.36
2022-09-20T12:57:59.093Z,13.91
2022-09-20T13:00:46.771Z,13.32
2022-09-20T13:03:34.374Z,13.99
2022-09-20T13:06:21.911Z,13.44
2022-09-20T13:09:09.465Z,13.72
2022-09-20T13:11:57.156Z,13.90
2022-09-20T13:14:46.686Z,13.82
2022-09-20T13:17:34.239Z,14.05
2022-09-20T13:20:21.792Z,14.03
2022-09-20T13:23:09.368Z,14.50
2022-09-20T13:25:56.913Z,14.78
2022-09-20T13:28:44.535Z,14.10
2022-09-20T13:31:32.127Z,13.72
2022-09-20T13:34:19.738Z,14.01
2022-09-20T13:37:07.293Z,14.16
2022-09-20T13:39:54.859Z,14.21
2022-09-20T13:42:42.407Z,14.08
2022-09-20T13:45:33.867Z,14.66
2022-09-20T13:48:21.675Z,14.31
2022-09-20T13:51:09.220Z,14.12
2022-09-20T13:53:56.789Z,14.38
2022-09-20T13:56:44.350Z,14.30
2022-09-20T13:59:31.906Z,14.37
2022-09-20T14:02:00.001Z,14.59
2022-09-20T14:04:27.378Z,14.36
2022-09-20T14:06:55.327Z,14.29
2022-09-20T14:09:23.079Z,14.29
2022-09-20T14:11:50.507Z,14.41
2022-09-20T14:14:22.030Z,14.60
2022-09-20T14:16:49.760Z,14.29
2022-09-20T14:19:17.515Z,14.68
2022-09-20T14:21:45.352Z,14.20
2022-09-20T14:24:12.872Z,14.48
2022-09-20T14:26:40.204Z,14.67
2022-09-20T14:29:07.705Z,14.52
2022-09-20T14:31:35.269Z,14.21
2022-09-20T14:34:03.001Z,14.17
2022-09-20T14:36:30.295Z,14.21
2022-09-20T14:38:58.273Z,14.31
2022-09-20T14:41:27.467Z,14.35
2022-09-20T14:43:55.926Z,14.27
2022-09-20T14:46:23.287Z,14.21
2022-09-20T14:48:50.729Z,14.09
2022-09-20T14:51:18.071Z,14.07
2022-09-20T14:53:45.318Z,13.90
2022-09-20T14:56:12.566Z,14.20
2022-09-20T14:58:39.838Z,14.35
2022-09-20T15:01:07.413Z,13.88
2022-09-20T15:03:34.977Z,14.43
2022-09-20T15:06:02.842Z,14.03
2022-09-20T15:08:30.991Z,13.94
2022-09-20T15:10:58.778Z,13.73
2022-09-20T15:13:26.436Z,13.98
2022-09-20T15:15:54.054Z,14.18
2022-09-20T15:18:21.871Z,14.09
2022-09-20T15:20:49.209Z,14.10
2022-09-20T15:23:18.908Z,14.06
2022-09-20T15:25:46.359Z,14.25
2022-09-20T15:28:14.156Z,14.06
2022-09-20T15:30:41.515Z,14.08
2022-09-20T15:33:09.005Z,13.89
2022-09-20T15:35:36.559Z,13.90
2022-09-20T15:38:04.155Z,13.61
2022-09-20T15:40:31.834Z,13.75
2022-09-20T15:42:59.438Z,13.66
2022-09-20T15:45:26.984Z,13.78
2022-09-20T15:47:54.823Z,13.86
2022-09-20T15:50:22.486Z,13.59
2022-09-20T15:52:49.883Z,13.52
2022-09-20T15:55:17.410Z,13.54
2022-09-20T15:57:44.937Z,13.70
2022-09-20T16:00:12.764Z,13.97
2022-09-20T16:02:40.421Z,13.90
2022-09-20T16:05:08.111Z,13.92
2022-09-20T16:07:35.754Z,13.69
2022-09-20T16:10:03.514Z,13.80
2022-09-20T16:12:31.290Z,13.43
2022-09-20T16:14:58.770Z,13.42
2022-09-20T16:17:26.629Z,13.31
2022-09-20T16:19:54.070Z,13.32
2022-09-20T16:22:21.435Z,13.52
2022-09-20T16:24:48.823Z,13.54
2022-09-20T16:27:16.858Z,13.56
2022-09-20T16:29:44.565Z,13.52
2022-09-20T16:32:12.262Z,13.44
2022-09-20T16:34:39.967Z,13.29
2022-09-20T16:37:07.375Z,13.18
2022-09-20T16:39:34.765Z,13.02
2022-09-20T16:42:02.105Z,13.09
2022-09-20T16:44:29.691Z,13.20
2022-09-20T16:46:57.337Z,13.00
2022-09-20T16:49:24.875Z,12.99
2022-09-20T16:51:52.575Z,12.93
2022-09-20T16:54:20.224Z,12.76
2022-09-20T16:56:47.581Z,12.82
2022-09-20T16:59:15.383Z,12.52
2022-09-20T17:01:42.612Z,12.52
2022-09-20T17:04:10.184Z,12.27
2022-09-20T17:06:37.727Z,12.18
2022-09-20T17:09:05.417Z,12.47
2022-09-20T17:11:36.421Z,12.24
2022-09-20T17:14:04.274Z,12.26
2022-09-20T17:16:31.857Z,12.00
2022-09-20T17:18:59.324Z,11.74
2022-09-20T17:21:27.196Z,11.59
2022-09-20T17:23:54.468Z,11.52
2022-09-20T17:26:22.290Z,11.34
2022-09-20T17:28:50.154Z,11.35
2022-09-20T17:31:18.560Z,11.18
2022-09-20T17:33:47.063Z,11.32
2022-09-20T17:36:14.649Z,11.15
2022-09-20T17:38:42.669Z,10.97
2022-09-20T17:41:10.201Z,10.99
2022-09-20T17:43:37.875Z,10.90
2022-09-20T17:46:05.602Z,10.81
2022-09-20T17:48:33.197Z,10.72
2022-09-20T17:51:00.634Z,10.75
2022-09-20T17:53:28.265Z,10.78
2022-09-20T17:55:55.714Z,10.58
2022-09-20T17:58:23.595Z,10.72
2022-09-20T18:00:53.116Z,10.62
2022-09-20T18:03:20.762Z,10.50
2022-09-20T18:05:48.543Z,10.36
2022-09-20T18:08:16.200Z,10.25
2022-09-20T18:10:44.019Z,10.18
2022-09-20T18:13:11.580Z,10.07
2022-09-20T18:15:39.242Z,10.25
2022-09-20T18:18:06.902Z,10.35
2022-09-20T18:20:34.600Z,10.27
2022-09-20T18:23:02.228Z,10.17
2022-09-20T18:25:29.989Z,10.57
2022-09-20T18:27:57.250Z,10.29
2022-09-20T18:30:24.709Z,10.38
2022-09-20T18:32:52.223Z,10.53
2022-09-20T18:35:19.849Z,10.45
2022-09-20T18:37:47.696Z,10.14
2022-09-20T18:40:15.518Z,10.17
2022-09-20T18:42:43.242Z,10.07
2022-09-20T18:45:10.672Z,10.35
2022-09-20T18:47:37.926Z,10.37
2022-09-20T18:50:05.262Z,10.08
2022-09-20T18:52:32.487Z,10.09
2022-09-20T18:54:59.731Z,9.92
2022-09-20T18:57:26.986Z,9.84
2022-09-20T18:59:58.203Z,9.72
2022-09-20T19:02:30.455Z,9.92
2022-09-20T19:04:57.736Z,9.89
2022-09-20T19:07:25.209Z,9.93
2022-09-20T19:09:52.924Z,9.86
2022-09-20T19:12:20.294Z,9.84
2022-09-20T19:14:48.041Z,10.02
2022-09-20T19:17:15.719Z,9.91
2022-09-20T19:19:43.202Z,9.66
2022-09-20T19:22:10.971Z,9.79
2022-09-20T19:24:38.544Z,9.62
2022-09-20T19:27:06.093Z,9.72
2022-09-20T19:29:33.699Z,9.68
2022-09-20T19:32:01.427Z,9.47
2022-09-20T19:34:29.276Z,9.46
2022-09-20T19:36:56.544Z,9.61
2022-09-20T19:39:24.024Z,9.71
2022-09-20T19:41:53.762Z,9.37
2022-09-20T19:44:21.235Z,9.63
2022-09-20T19:46:48.921Z,9.40
2022-09-20T19:49:18.533Z,9.56
2022-09-20T19:51:46.169Z,9.52
2022-09-20T19:54:14.948Z,9.44
2022-09-20T19:56:42.831Z,9.56
2022-09-20T19:59:10.179Z,9.54
2022-09-20T20:01:37.732Z,9.53
2022-09-20T20:04:05.402Z,9.48
2022-09-20T20:06:33.269Z,9.46
2022-09-20T20:09:00.685Z,9.31
2022-09-20T20:11:28.399Z,9.21
2022-09-20T20:13:55.914Z,9.04
2022-09-20T20:16:23.587Z,9.31
2022-09-20T20:18:51.488Z,8.98
2022-09-20T20:21:19.077Z,9.11
2022-09-20T20:23:46.843Z,9.11
2022-09-20T20:26:14.211Z,9.19
2022-09-20T20:28:42.057Z,9.26
2022-09-20T20:31:09.550Z,9.11
2022-09-20T20:33:37.125Z,9.27
2022-09-20T20:36:04.811Z,9.08
2022-09-20T20:38:32.396Z,9.11
2022-09-20T20:40:59.678Z,8.97
2022-09-20T20:43:27.182Z,9.08
2022-09-20T20:45:55.014Z,9.01
2022-09-20T20:48:22.457Z,9.02
2022-09-20T20:50:50.353Z,9.00
2022-09-20T20:53:17.690Z,9.10
2022-09-20T20:55:47.397Z,8.90
2022-09-20T20:58:17.300Z,9.09
2022-09-20T21:00:45.038Z,9.04
2022-09-20T21:03:12.823Z,8.92
2022-09-20T21:05:40.651Z,8.96
2022-09-20T21:08:08.440Z,9.00
2022-09-20T21:10:38.139Z,9.06
2022-09-20T21:13:05.515Z,8.99
2022-09-20T21:15:33.323Z,8.89
2022-09-20T21:18:01.155Z,8.96
2022-09-20T21:20:28.480Z,8.90
2022-09-20T21:22:55.945Z,8.86
2022-09-20T21:25:25.575Z,8.63
2022-09-20T21:27:52.917Z,8.76
2022-09-20T21:30:20.592Z,8.74
2022-09-20T21:32:48.060Z,8.80
2022-09-20T21:35:15.825Z,8.69
2022-09-20T21:37:43.492Z,8.76
2022-09-20T21:40:11.422Z,8.65
2022-09-20T21:42:39.329Z,8.53
2022-09-20T21:45:07.090Z,8.65
2022-09-20T21:47:34.943Z,8.65
2022-09-20T21:50:02.488Z,8.57
2022-09-20T21:52:30.259Z,8.59
2022-09-20T21:54:57.921Z,8.48
2022-09-20T21:57:25.500Z,8.64
2022-09-20T21:59:53.058Z,8.51
2022-09-20T22:02:20.943Z,8.52
2022-09-20T22:04:48.624Z,8.47
2022-09-20T22:07:16.044Z,8.47
2022-09-20T22:09:43.817Z,8.48
2022-09-20T22:12:11.291Z,8.45
2022-09-20T22:14:39.139Z,8.38
2022-09-20T22:17:06.697Z,8.32
2022-09-20T22:19:34.184Z,8.51
2022-09-20T22:22:01.600Z,8.48
2022-09-20T22:24:29.226Z,8.40
2022-09-20T22:26:57.026Z,8.20
2022-09-20T22:29:24.606Z,8.15
2022-09-20T22:31:52.292Z,8.25
2022-09-20T22:34:20.115Z,8.15
2022-09-20T22:36:47.505Z,7.87
2022-09-20T22:39:15.157Z,8.00
2022-09-20T22:41:42.917Z,7.81
2022-09-20T22:44:10.800Z,8.00
2022-09-20T22:46:38.567Z,7.84
2022-09-20T22:49:05.951Z,7.97
2022-09-20T22:51:33.765Z,7.66
2022-09-20T22:54:01.427Z,7.75
2022-09-20T22:56:28.903Z,7.76
2022-09-20T22:58:56.493Z,7.94
2022-09-20T23:01:24.104Z,7.81
2022-09-20T23:03:51.776Z,7.85
2022-09-20T23:06:19.341Z,7.76
2022-09-20T23:08:47.192Z,7.78
2022-09-20T23:11:14.914Z,7.81
2022-09-20T23:13:42.321Z,7.70
2022-09-20T23:16:09.968Z,7.66
2022-09-20T23:18:37.323Z,7.80
2022-09-20T23:21:05.208Z,7.76
2022-09-20T23:23:32.559Z,7.68
2022-09-20T23:26:00.315Z,7.76
2022-09-20T23:28:28.014Z,7.67
2022-09-20T23:30:55.816Z,7.66
2022-09-20T23:33:23.498Z,7.48
2022-09-20T23:35:51.184Z,7.62
2022-09-20T23:38:18.669Z,7.39
2022-09-20T23:40:48.431Z,7.62
2022-09-20T23:43:16.016Z,7.62
2022-09-20T23:45:43.506Z,7.64
2022-09-20T23:48:12.362Z,7.48
2022-09-20T23:50:39.695Z,7.47
2022-09-20T23:53:07.387Z,7.54
2022-09-20T23:55:34.823Z,7.61
2022-09-20T23:58:02.353Z,7.57
